Time;durP1;ratioP1;P1;durP2;ratioP2;P2;SDS_P1;SDS_P2;PMS_P1;PMS_P2;Temp;Humidity;BMP_temperature;BMP_pressure;BME280_temperature;BME280_humidity;BME280_pressure;Samples;Min_cycle;Max_cycle;Signal;HPM_P1;HPM_P2
2021/05/18 00:00:35;;;;;;;10.77;8.20;;;;;21.50;99884.00;;;;2078999;28;20242;-51
2021/05/18 00:01:36;;;;;;;10.60;7.00;;;;;21.60;99883.00;;;;2079163;28;20220;-53
2021/05/18 00:02:36;;;;;;;11.40;7.47;;;;;21.50;99889.00;;;;2079049;28;20258;-53
2021/05/18 00:03:37;;;;;;;9.97;7.40;;;;;21.60;99897.00;;;;2072025;28;20225;-52
2021/05/18 00:04:38;;;;;;;9.50;7.38;;;;;21.60;99891.00;;;;2070903;28;20223;-50
2021/05/18 00:05:39;;;;;;;10.53;7.80;;;;;21.60;99892.00;;;;2070320;28;20299;-50
2021/05/18 00:06:41;;;;;;;9.63;7.22;;;;;21.60;99886.00;;;;2070527;28;20220;-51
2021/05/18 00:07:50;;;;;;;7.68;6.70;;;;;21.50;99887.00;;;;2070751;28;20630;-53
2021/05/18 00:11:47;;;;;;;8.00;6.90;;;;;21.30;99881.00;;;;2069556;28;20683;-53
2021/05/18 00:12:47;;;;;;;9.95;7.07;;;;;21.40;99881.00;;;;2073298;28;20261;-50
2021/05/18 00:13:49;;;;;;;8.80;6.87;;;;;21.40;99883.00;;;;2071427;28;20273;-51
2021/05/18 00:14:50;;;;;;;9.27;7.22;;;;;21.40;99886.00;;;;2070753;28;20207;-52
2021/05/18 00:15:51;;;;;;;8.97;6.80;;;;;21.40;99888.00;;;;2070168;28;20208;-52
2021/05/18 00:16:52;;;;;;;8.88;6.68;;;;;21.40;99886.00;;;;2078764;28;20214;-50
2021/05/18 00:17:53;;;;;;;10.83;7.90;;;;;21.40;99889.00;;;;2078800;28;20222;-52
2021/05/18 00:18:53;;;;;;;7.73;6.93;;;;;21.40;99892.00;;;;2077838;28;20625;-52
2021/05/18 00:19:53;;;;;;;8.77;7.10;;;;;21.40;99897.00;;;;2069985;28;20675;-52
2021/05/18 00:20:54;;;;;;;9.60;6.90;;;;;21.40;99899.00;;;;2077966;28;20207;-51
2021/05/18 00:21:54;;;;;;;10.20;6.60;;;;;21.40;99894.00;;;;2076575;28;20208;-52
2021/05/18 00:22:54;;;;;;;9.03;6.93;;;;;21.40;99900.00;;;;2070140;28;20213;-53
2021/05/18 00:23:55;;;;;;;9.20;6.83;;;;;21.40;99899.00;;;;2070472;28;20363;-51
2021/05/18 00:24:55;;;;;;;8.57;6.30;;;;;21.40;99902.00;;;;2070614;28;20224;-53
2021/05/18 00:25:56;;;;;;;8.60;6.40;;;;;21.40;99898.00;;;;2069846;28;20217;-53
2021/05/18 00:26:56;;;;;;;7.47;6.27;;;;;21.40;99894.00;;;;2070592;28;20212;-50
2021/05/18 00:27:56;;;;;;;9.13;6.47;;;;;21.30;99894.00;;;;2070764;28;20220;-52
2021/05/18 00:28:57;;;;;;;9.43;6.60;;;;;21.40;99898.00;;;;2070324;28;20227;-52
2021/05/18 00:29:57;;;;;;;7.93;6.30;;;;;21.40;99892.00;;;;2070738;28;20357;-52
2021/05/18 00:30:58;;;;;;;7.87;5.93;;;;;21.30;99899.00;;;;2070730;28;20219;-51
2021/05/18 00:31:58;;;;;;;7.37;5.33;;;;;21.30;99895.00;;;;2070627;28;20207;-50
2021/05/18 00:32:59;;;;;;;7.77;6.30;;;;;21.30;99894.00;;;;2076314;28;20567;-49
2021/05/18 00:34:00;;;;;;;7.60;5.53;;;;;21.30;99901.00;;;;2078424;28;20222;-53
2021/05/18 00:35:00;;;;;;;7.43;6.33;;;;;21.30;99894.00;;;;2078535;28;20206;-50
2021/05/18 00:36:01;;;;;;;7.23;5.50;;;;;21.30;99891.00;;;;2078110;28;20211;-51
2021/05/18 00:37:02;;;;;;;7.43;5.70;;;;;21.30;99902.00;;;;2078850;28;20597;-53
2021/05/18 00:38:04;;;;;;;7.20;5.50;;;;;21.30;99896.00;;;;2078816;28;20208;-51
2021/05/18 00:39:05;;;;;;;6.90;5.50;;;;;21.30;99897.00;;;;2070364;28;20222;-50
2021/05/18 00:40:07;;;;;;;9.07;5.53;;;;;21.10;99893.00;;;;2070531;28;20216;-52
2021/05/18 00:41:08;;;;;;;7.22;5.50;;;;;21.30;99892.00;;;;2073251;28;20237;-50
2021/05/18 00:42:16;;;;;;;7.05;5.35;;;;;21.30;99898.00;;;;2073095;28;20745;-51
2021/05/18 00:43:17;;;;;;;6.35;5.03;;;;;21.30;99892.00;;;;2072176;28;20650;-50
2021/05/18 00:44:17;;;;;;;7.30;5.10;;;;;21.30;99891.00;;;;2070505;28;20258;-51
2021/05/18 00:45:28;;;;;;;6.33;5.20;;;;;21.30;99890.00;;;;2070542;28;20618;-51
2021/05/18 00:46:29;;;;;;;6.75;5.45;;;;;21.30;99892.00;;;;2070051;28;20241;-50
2021/05/18 00:47:29;;;;;;;6.67;5.30;;;;;21.30;99890.00;;;;2070273;28;20327;-51
2021/05/18 00:48:29;;;;;;;7.10;5.27;;;;;21.30;99894.00;;;;2070700;28;20265;-52
2021/05/18 00:49:30;;;;;;;8.23;5.33;;;;;21.20;99894.00;;;;2069956;28;20224;-51
2021/05/18 00:50:31;;;;;;;5.93;4.70;;;;;21.20;99896.00;;;;2070659;28;20211;-52
2021/05/18 00:51:32;;;;;;;7.60;5.30;;;;;21.20;99923.00;;;;2070550;28;20239;-52
2021/05/18 00:52:32;;;;;;;7.10;5.40;;;;;21.20;99899.00;;;;2070515;28;20229;-50
2021/05/18 00:53:32;;;;;;;6.90;5.53;;;;;21.20;99896.00;;;;2069773;28;20222;-51
2021/05/18 00:54:41;;;;;;;7.20;5.00;;;;;21.20;99900.00;;;;2069860;28;20234;-50
2021/05/18 00:55:45;;;;;;;5.70;4.80;;;;;21.20;99897.00;;;;2069676;28;20223;-50
2021/05/18 00:58:28;;;;;;;6.05;4.60;;;;;21.20;99900.00;;;;2069024;28;21042;-52
2021/05/18 00:59:28;;;;;;;7.13;5.20;;;;;21.20;99901.00;;;;2077191;28;20675;-52
2021/05/18 01:00:29;;;;;;;5.30;4.80;;;;;21.20;99903.00;;;;2080394;28;20298;-50
2021/05/18 01:01:30;;;;;;;6.00;4.93;;;;;21.20;99888.00;;;;2080286;28;20244;-52
2021/05/18 01:02:30;;;;;;;6.80;4.70;;;;;21.20;99893.00;;;;2079710;28;20253;-52
2021/05/18 01:03:31;;;;;;;7.60;5.00;;;;;21.20;99893.00;;;;2079441;28;21118;-52
2021/05/18 01:04:31;;;;;;;5.87;4.13;;;;;21.20;99892.00;;;;2079948;28;20207;-53
2021/05/18 01:06:50;;;;;;;5.75;5.00;;;;;21.20;99891.00;;;;2079480;28;20234;-52
2021/05/18 01:07:51;;;;;;;6.90;5.43;;;;;21.20;99891.00;;;;2079798;28;20216;-53
2021/05/18 01:08:52;;;;;;;4.60;3.90;;;;;21.20;99892.00;;;;2076547;28;20211;-53
2021/05/18 01:09:53;;;;;;;6.93;5.10;;;;;21.20;99837.00;;;;2071677;28;20223;-53
2021/05/18 01:10:53;;;;;;;6.20;4.57;;;;;21.20;99898.00;;;;2075655;28;20574;-51
2021/05/18 01:11:53;;;;;;;4.80;4.10;;;;;21.20;99906.00;;;;2073829;28;20586;-50
2021/05/18 01:12:54;;;;;;;4.33;3.93;;;;;21.20;99898.00;;;;2073168;28;20617;-51
2021/05/18 01:13:57;;;;;;;6.23;4.47;;;;;21.20;99902.00;;;;2070517;28;20860;-52
2021/05/18 01:14:57;;;;;;;5.40;4.80;;;;;21.20;99905.00;;;;2076580;28;20520;-50
2021/05/18 01:15:58;;;;;;;5.03;4.10;;;;;21.20;99897.00;;;;2078575;28;20715;-50
2021/05/18 01:16:58;;;;;;;7.43;5.03;;;;;21.20;99886.00;;;;2079808;28;20794;-51
2021/05/18 01:17:58;;;;;;;5.23;4.60;;;;;21.20;99894.00;;;;2080118;28;20210;-51
2021/05/18 01:18:59;;;;;;;7.03;4.70;;;;;21.10;99892.00;;;;2080030;28;20261;-51
2021/05/18 01:20:12;;;;;;;6.27;4.43;;;;;21.20;99890.00;;;;2080198;28;20211;-52
2021/05/18 01:21:12;;;;;;;6.32;4.57;;;;;21.10;99892.00;;;;2080361;28;20756;-52
2021/05/18 01:22:13;;;;;;;6.20;4.90;;;;;21.10;99890.00;;;;2080099;28;20218;-51
2021/05/18 01:23:13;;;;;;;6.00;4.57;;;;;21.10;99889.00;;;;2080281;28;20301;-53
2021/05/18 01:24:14;;;;;;;6.07;4.13;;;;;21.10;99881.00;;;;2073632;28;20212;-52
2021/05/18 01:25:16;;;;;;;6.50;4.80;;;;;21.10;99888.00;;;;2071833;28;20299;-51
2021/05/18 01:26:16;;;;;;;6.18;4.85;;;;;21.10;99886.00;;;;2070993;28;20723;-51
2021/05/18 01:27:17;;;;;;;5.57;3.83;;;;;21.10;99885.00;;;;2071938;28;20230;-52
2021/05/18 01:28:17;;;;;;;5.13;4.03;;;;;21.10;99891.00;;;;2071886;28;20242;-51
2021/05/18 01:29:19;;;;;;;7.07;4.67;;;;;21.10;99888.00;;;;2079657;28;20226;-51
2021/05/18 01:30:20;;;;;;;5.15;4.60;;;;;21.10;99884.00;;;;2072022;28;20214;-52
2021/05/18 01:31:23;;;;;;;5.87;4.73;;;;;21.10;99888.00;;;;2072250;28;20211;-53
2021/05/18 01:32:25;;;;;;;6.13;4.82;;;;;21.10;99887.00;;;;2077520;28;20219;-52
2021/05/18 01:33:26;;;;;;;6.93;4.38;;;;;21.10;99885.00;;;;2079990;28;20222;-52
2021/05/18 01:34:26;;;;;;;5.97;4.40;;;;;21.10;99881.00;;;;2079987;28;20577;-53
2021/05/18 01:35:28;;;;;;;5.27;4.00;;;;;21.10;99884.00;;;;2080060;28;20214;-50
2021/05/18 01:36:31;;;;;;;5.30;4.65;;;;;21.10;99897.00;;;;2078721;28;20774;-51
2021/05/18 01:37:31;;;;;;;5.03;4.40;;;;;21.10;99890.00;;;;2079241;28;20233;-51
2021/05/18 01:38:57;;;;;;;6.33;4.17;;;;;21.10;99888.00;;;;2079414;28;20284;-51
2021/05/18 01:43:35;;;;;;;7.13;4.93;;;;;21.10;99889.00;;;;2072750;28;20219;-51
2021/05/18 01:44:36;;;;;;;7.63;4.70;;;;;21.10;99894.00;;;;2071734;28;20215;-53
2021/05/18 01:45:36;;;;;;;4.17;3.50;;;;;21.10;99894.00;;;;2071701;28;20222;-52
2021/05/18 01:46:37;;;;;;;5.30;4.10;;;;;21.10;99889.00;;;;2070870;28;20707;-51
2021/05/18 01:47:37;;;;;;;5.27;4.10;;;;;21.00;99888.00;;;;2071273;28;20579;-49
2021/05/18 01:48:37;;;;;;;5.50;4.30;;;;;21.10;99895.00;;;;2071780;28;20219;-50
2021/05/18 01:49:38;;;;;;;5.30;4.63;;;;;21.00;99886.00;;;;2071714;28;21060;-50
2021/05/18 01:50:39;;;;;;;5.10;4.23;;;;;21.00;99895.00;;;;2071876;28;20212;-52
2021/05/18 01:51:51;;;;;;;5.65;4.63;;;;;21.00;99897.00;;;;2071547;28;20215;-52
2021/05/18 01:52:52;;;;;;;7.60;4.85;;;;;21.00;99888.00;;;;2079446;28;20210;-49
2021/05/18 01:53:54;;;;;;;5.70;3.93;;;;;21.00;99894.00;;;;2079625;28;20268;-51
2021/05/18 01:54:55;;;;;;;6.32;4.38;;;;;21.00;99898.00;;;;2079694;28;20326;-53
2021/05/18 01:56:19;;;;;;;6.00;4.50;;;;;21.00;99890.00;;;;2079343;28;20229;-53
2021/05/18 01:57:21;;;;;;;4.68;4.15;;;;;21.00;99902.00;;;;2079631;28;20213;-53
2021/05/18 01:58:22;;;;;;;5.40;4.28;;;;;21.00;99899.00;;;;2079865;28;20214;-53
2021/05/18 01:59:24;;;;;;;5.07;4.10;;;;;21.00;99903.00;;;;2079673;28;20582;-53
2021/05/18 02:00:26;;;;;;;5.25;4.13;;;;;21.00;99901.00;;;;2079818;28;20222;-51
2021/05/18 02:01:27;;;;;;;5.72;4.65;;;;;21.00;99904.00;;;;2079268;28;20293;-53
2021/05/18 02:02:27;;;;;;;5.03;4.47;;;;;21.00;99909.00;;;;2079754;28;20222;-54
2021/05/18 02:03:27;;;;;;;5.47;4.17;;;;;21.00;99920.00;;;;2079780;28;20229;-53
2021/05/18 02:04:34;;;;;;;5.90;4.43;;;;;21.00;99917.00;;;;2078882;28;20305;-52
2021/05/18 02:05:37;;;;;;;6.85;4.15;;;;;21.00;99917.00;;;;2079926;28;20309;-52
2021/05/18 02:06:38;;;;;;;5.38;4.35;;;;;21.00;99916.00;;;;2079045;28;20275;-50
2021/05/18 02:07:39;;;;;;;4.33;3.93;;;;;21.00;99913.00;;;;2079303;28;20306;-50
2021/05/18 02:08:40;;;;;;;7.03;3.97;;;;;21.00;99916.00;;;;2079140;28;20302;-50
2021/05/18 02:09:40;;;;;;;5.63;4.73;;;;;21.00;99920.00;;;;2079172;28;20219;-51
2021/05/18 02:10:40;;;;;;;4.87;4.20;;;;;21.00;99909.00;;;;2076669;28;20208;-52
2021/05/18 02:11:41;;;;;;;4.50;4.03;;;;;21.00;99914.00;;;;2072965;28;20719;-53
2021/05/18 02:12:42;;;;;;;5.97;4.33;;;;;21.00;99926.00;;;;2072728;28;20747;-53
2021/05/18 02:13:47;;;;;;;6.70;4.80;;;;;21.00;99918.00;;;;2071536;28;20215;-51
2021/05/18 02:14:52;;;;;;;5.55;4.57;;;;;21.00;99920.00;;;;2071434;28;20630;-52
2021/05/18 02:16:57;;;;;;;6.03;4.87;;;;;21.00;99916.00;;;;2071576;28;20226;-50
2021/05/18 02:25:06;;;;;;;6.13;4.50;;;;;21.00;99916.00;;;;2079227;28;20217;-52
2021/05/18 02:26:06;;;;;;;5.18;4.63;;;;;21.00;99918.00;;;;2077757;28;20268;-53
2021/05/18 02:27:06;;;;;;;4.90;4.23;;;;;21.00;99922.00;;;;2079216;28;20242;-53
2021/05/18 02:28:08;;;;;;;4.67;4.27;;;;;21.00;99913.00;;;;2075600;28;20207;-53
2021/05/18 02:29:09;;;;;;;6.40;4.60;;;;;21.00;99919.00;;;;2070473;28;20292;-51
2021/05/18 02:30:10;;;;;;;5.57;4.70;;;;;21.00;99917.00;;;;2070890;28;20294;-51
2021/05/18 02:31:11;;;;;;;6.97;4.40;;;;;21.00;99917.00;;;;2070700;28;20238;-53
2021/05/18 02:32:11;;;;;;;5.87;4.50;;;;;21.00;99922.00;;;;2071119;28;20751;-50
2021/05/18 02:33:11;;;;;;;5.63;4.73;;;;;21.00;99920.00;;;;2071558;28;20472;-52
2021/05/18 02:34:12;;;;;;;6.30;5.13;;;;;21.00;99921.00;;;;2071346;28;20639;-52
2021/05/18 02:35:12;;;;;;;5.43;4.80;;;;;20.90;99929.00;;;;2071640;28;20556;-49
2021/05/18 02:36:13;;;;;;;6.80;4.47;;;;;21.00;99922.00;;;;2070636;28;20593;-50
2021/05/18 02:37:13;;;;;;;5.40;4.60;;;;;20.90;99925.00;;;;2071446;28;20227;-52
2021/05/18 02:38:13;;;;;;;6.03;4.70;;;;;20.90;99924.00;;;;2071357;28;20207;-52
2021/05/18 02:39:14;;;;;;;5.33;4.80;;;;;20.90;99917.00;;;;2071473;28;20212;-51
2021/05/18 02:40:19;;;;;;;4.97;4.40;;;;;20.90;99922.00;;;;2075168;28;20301;-51
2021/05/18 02:41:20;;;;;;;6.10;4.65;;;;;20.90;99919.00;;;;2074637;28;20238;-52
2021/05/18 02:42:20;;;;;;;5.07;4.60;;;;;20.90;99922.00;;;;2073328;28;20591;-53
2021/05/18 02:43:25;;;;;;;5.10;4.60;;;;;20.90;99922.00;;;;2074137;28;20291;-52
2021/05/18 02:44:40;;;;;;;5.07;4.20;;;;;20.90;99919.00;;;;2073529;28;20221;-52
2021/05/18 02:45:52;;;;;;;5.00;4.40;;;;;20.90;99921.00;;;;2072205;28;20325;-52
2021/05/18 02:49:30;;;;;;;5.00;4.50;;;;;20.90;99916.00;;;;2079614;28;20214;-52
2021/05/18 02:50:30;;;;;;;5.57;4.67;;;;;20.90;99918.00;;;;2079599;28;20578;-53
2021/05/18 02:51:31;;;;;;;5.53;4.83;;;;;20.90;99911.00;;;;2079418;28;20214;-51
2021/05/18 02:52:32;;;;;;;5.20;4.63;;;;;20.90;99920.00;;;;2079398;28;20629;-53
2021/05/18 02:53:33;;;;;;;4.65;4.25;;;;;20.90;99921.00;;;;2079453;28;20219;-52
2021/05/18 02:54:33;;;;;;;5.13;4.63;;;;;20.90;99926.00;;;;2073058;28;20207;-51
2021/05/18 02:56:50;;;;;;;4.97;4.53;;;;;20.90;99918.00;;;;2074626;28;20580;-53
2021/05/18 02:57:51;;;;;;;4.20;3.80;;;;;20.90;99919.00;;;;2079259;28;20265;-51
2021/05/18 03:00:07;;;;;;;6.57;5.35;;;;;20.90;99919.00;;;;2078789;28;20210;-51
2021/05/18 03:01:07;;;;;;;4.90;4.40;;;;;20.90;99924.00;;;;2079032;28;20213;-53
2021/05/18 03:02:07;;;;;;;5.30;4.40;;;;;20.90;99924.00;;;;2079000;28;20641;-53
2021/05/18 03:03:08;;;;;;;5.57;4.60;;;;;20.90;99918.00;;;;2079499;28;20627;-53
2021/05/18 03:04:08;;;;;;;6.50;4.80;;;;;20.90;99917.00;;;;2079262;28;20214;-52
2021/05/18 03:05:09;;;;;;;5.53;4.73;;;;;20.90;99918.00;;;;2079401;28;20248;-50
2021/05/18 03:06:09;;;;;;;4.90;4.37;;;;;20.90;99923.00;;;;2071597;28;20761;-52
2021/05/18 03:07:10;;;;;;;4.63;4.23;;;;;20.90;99921.00;;;;2086921;28;20448;-52
2021/05/18 03:08:11;;;;;;;4.63;4.20;;;;;20.90;99908.00;;;;2082753;28;20214;-50
2021/05/18 03:09:12;;;;;;;4.70;4.30;;;;;20.90;99923.00;;;;2079292;28;20222;-53
2021/05/18 03:10:13;;;;;;;5.50;4.95;;;;;20.90;99920.00;;;;2078068;28;20217;-51
2021/05/18 03:11:13;;;;;;;6.90;5.13;;;;;20.90;99923.00;;;;2071830;28;20233;-52
2021/05/18 03:12:14;;;;;;;4.50;4.10;;;;;20.90;99923.00;;;;2075490;28;20202;-53
2021/05/18 03:13:14;;;;;;;5.60;4.60;;;;;20.90;99916.00;;;;2065380;28;20694;-51
2021/05/18 03:14:15;;;;;;;5.30;3.90;;;;;20.90;99924.00;;;;2070335;28;20790;-51
2021/05/18 03:15:15;;;;;;;4.77;4.30;;;;;20.90;99916.00;;;;2075860;28;20264;-53
2021/05/18 03:16:16;;;;;;;4.53;4.13;;;;;20.90;99916.00;;;;2075809;28;20316;-53
2021/05/18 03:17:16;;;;;;;5.03;4.63;;;;;20.90;99912.00;;;;2070455;28;20217;-53
2021/05/18 03:18:16;;;;;;;5.00;4.60;;;;;20.90;99919.00;;;;2070364;28;20231;-52
2021/05/18 03:19:17;;;;;;;5.47;4.53;;;;;20.90;99910.00;;;;2070575;28;21128;-53
2021/05/18 03:20:17;;;;;;;8.23;5.37;;;;;20.90;99922.00;;;;2070734;28;20607;-52
2021/05/18 03:21:18;;;;;;;5.37;4.60;;;;;20.90;99928.00;;;;2069486;28;20214;-53
2021/05/18 03:22:18;;;;;;;4.70;4.00;;;;;20.90;99922.00;;;;2074606;28;20214;-50
2021/05/18 03:23:19;;;;;;;5.10;4.60;;;;;20.90;99929.00;;;;2079284;28;20205;-50
2021/05/18 03:24:19;;;;;;;5.60;5.10;;;;;20.90;99924.00;;;;2078492;28;20206;-51
2021/05/18 03:25:19;;;;;;;5.97;5.30;;;;;20.80;99914.00;;;;2071064;28;20203;-52
2021/05/18 03:26:20;;;;;;;6.67;5.13;;;;;20.90;99920.00;;;;2075485;28;20706;-52
2021/05/18 03:27:20;;;;;;;5.57;5.07;;;;;20.90;99922.00;;;;2079197;28;20218;-52
2021/05/18 03:28:21;;;;;;;4.80;4.30;;;;;20.90;99923.00;;;;2078988;28;20297;-52
2021/05/18 03:29:33;;;;;;;5.95;5.35;;;;;20.80;99921.00;;;;2076209;28;20572;-53
2021/05/18 03:35:49;;;;;;;5.65;5.13;;;;;20.80;99921.00;;;;2077766;28;20210;-50
2021/05/18 03:36:49;;;;;;;5.30;4.80;;;;;20.80;99921.00;;;;2077698;28;20582;-51
2021/05/18 03:37:55;;;;;;;5.20;4.70;;;;;20.80;99927.00;;;;2077674;28;20293;-52
2021/05/18 03:38:57;;;;;;;5.30;4.57;;;;;20.80;99922.00;;;;2077930;28;20618;-52
2021/05/18 03:40:05;;;;;;;6.03;5.53;;;;;20.80;99924.00;;;;2075731;28;20287;-51
2021/05/18 03:41:14;;;;;;;5.53;5.03;;;;;20.80;99916.00;;;;2072515;28;20226;-52
2021/05/18 03:42:34;;;;;;;5.82;5.30;;;;;20.80;99921.00;;;;2074482;28;20209;-52
2021/05/18 03:45:00;;;;;;;5.20;4.78;;;;;20.80;99921.00;;;;2076430;28;20205;-53
2021/05/18 03:48:57;;;;;;;5.35;4.85;;;;;20.80;99925.00;;;;2078916;28;20209;-52
2021/05/18 03:52:37;;;;;;;5.45;4.95;;;;;20.80;99912.00;;;;2078967;28;20214;-52
2021/05/18 04:04:46;;;;;;;6.00;5.50;;;;;20.80;99929.00;;;;2078250;28;20209;-50
2021/05/18 04:12:16;;;;;;;6.30;5.80;;;;;20.70;99927.00;;;;2075590;28;20218;-53
2021/05/18 04:17:04;;;;;;;6.57;6.00;;;;;20.70;99930.00;;;;2074607;28;20209;-53
2021/05/18 04:19:12;;;;;;;5.43;4.93;;;;;20.70;99940.00;;;;2071297;28;20219;-53
2021/05/18 04:20:22;;;;;;;6.07;5.57;;;;;20.80;99940.00;;;;2070283;28;20226;-50
2021/05/18 04:22:34;;;;;;;5.47;4.97;;;;;20.80;99939.00;;;;2078389;28;20221;-51
2021/05/18 04:25:16;;;;;;;5.80;5.30;;;;;20.80;99946.00;;;;2077896;28;20210;-50
2021/05/18 04:54:09;;;;;;;4.95;4.45;;;;;20.70;99943.00;;;;2072261;28;20215;-52
2021/05/18 04:59:10;;;;;;;4.88;4.47;;;;;20.70;99948.00;;;;2075969;28;20213;-53
2021/05/18 05:00:17;;;;;;;3.95;3.65;;;;;20.70;99957.00;;;;2078629;28;21034;-52
2021/05/18 05:06:31;;;;;;;4.05;3.75;;;;;20.70;99950.00;;;;2069555;28;20243;-51
2021/05/18 05:07:41;;;;;;;3.70;3.40;;;;;20.70;99956.00;;;;2077400;28;20679;-53
2021/05/18 05:10:01;;;;;;;3.72;3.42;;;;;20.70;99954.00;;;;2070074;28;20210;-50
2021/05/18 05:14:39;;;;;;;4.03;3.72;;;;;20.70;99958.00;;;;2076176;28;20221;-52
2021/05/18 05:15:41;;;;;;;3.67;3.37;;;;;20.70;99968.00;;;;2077712;28;20210;-53
2021/05/18 05:16:42;;;;;;;3.97;3.65;;;;;20.70;99966.00;;;;2077154;28;20686;-52
2021/05/18 05:17:43;;;;;;;4.15;3.75;;;;;20.70;99962.00;;;;2077800;28;20872;-52
2021/05/18 05:18:43;;;;;;;3.57;3.37;;;;;20.60;99966.00;;;;2077790;28;20226;-51
2021/05/18 05:19:43;;;;;;;4.37;3.97;;;;;20.60;99966.00;;;;2077136;28;20225;-51
2021/05/18 05:20:44;;;;;;;3.40;3.20;;;;;20.70;99969.00;;;;2078121;28;20269;-53
2021/05/18 05:21:44;;;;;;;3.33;3.03;;;;;20.70;99964.00;;;;2077797;28;20214;-53
2021/05/18 05:22:44;;;;;;;3.67;3.37;;;;;20.70;99959.00;;;;2078048;28;20223;-52
2021/05/18 05:23:45;;;;;;;3.50;3.20;;;;;20.70;99965.00;;;;2077495;28;20213;-53
2021/05/18 05:24:45;;;;;;;3.47;3.17;;;;;20.70;99968.00;;;;2077086;28;20223;-50
2021/05/18 05:25:46;;;;;;;3.30;3.10;;;;;20.70;99966.00;;;;2077540;28;20246;-51
2021/05/18 05:26:46;;;;;;;3.27;2.97;;;;;20.70;99966.00;;;;2076746;28;20293;-53
2021/05/18 05:27:47;;;;;;;4.37;3.33;;;;;20.70;99966.00;;;;2075885;28;20222;-52
2021/05/18 05:28:47;;;;;;;3.97;3.67;;;;;20.70;99960.00;;;;2077855;28;20709;-53
2021/05/18 05:29:47;;;;;;;3.23;2.93;;;;;20.70;99963.00;;;;2070017;28;20553;-51
2021/05/18 05:30:48;;;;;;;3.57;3.27;;;;;20.60;99969.00;;;;2069859;28;20594;-51
2021/05/18 05:31:49;;;;;;;3.30;3.00;;;;;20.60;99966.00;;;;2069671;28;20599;-53
2021/05/18 05:32:49;;;;;;;3.38;3.08;;;;;20.60;99967.00;;;;2069943;28;20219;-51
2021/05/18 05:33:50;;;;;;;3.63;3.33;;;;;20.70;99967.00;;;;2069709;28;20223;-51
2021/05/18 05:34:50;;;;;;;4.40;3.90;;;;;20.60;99961.00;;;;2069423;28;20210;-52
2021/05/18 05:35:51;;;;;;;3.47;3.17;;;;;20.60;99967.00;;;;2069697;28;20219;-53
2021/05/18 05:36:51;;;;;;;3.53;3.23;;;;;20.60;99966.00;;;;2068947;28;20207;-53
2021/05/18 05:37:53;;;;;;;3.30;2.80;;;;;20.60;99964.00;;;;2076030;28;20473;-51
2021/05/18 05:39:00;;;;;;;4.05;3.58;;;;;20.70;99966.00;;;;2076017;28;20261;-50
2021/05/18 05:40:01;;;;;;;3.53;3.22;;;;;20.60;99968.00;;;;2077168;28;20736;-53
2021/05/18 05:41:01;;;;;;;3.50;3.00;;;;;20.60;99964.00;;;;2073245;28;20214;-53
2021/05/18 05:42:02;;;;;;;3.10;2.90;;;;;20.60;99968.00;;;;2071318;28;20214;-52
2021/05/18 05:43:02;;;;;;;3.03;2.83;;;;;20.60;99969.00;;;;2071345;28;20566;-51
2021/05/18 05:44:04;;;;;;;3.30;3.10;;;;;20.60;99968.00;;;;2069799;28;20261;-53
2021/05/18 05:45:05;;;;;;;3.20;2.90;;;;;20.60;99972.00;;;;2071109;28;20640;-51
2021/05/18 05:46:06;;;;;;;3.57;3.27;;;;;20.60;99968.00;;;;2070948;28;20222;-52
2021/05/18 05:47:07;;;;;;;4.25;3.85;;;;;20.60;99981.00;;;;2069633;28;20562;-53
2021/05/18 05:48:07;;;;;;;3.37;3.07;;;;;20.60;99974.00;;;;2075224;28;20232;-53
2021/05/18 05:49:07;;;;;;;3.50;3.20;;;;;20.60;99968.00;;;;2079635;28;20307;-51
2021/05/18 05:50:09;;;;;;;4.47;2.90;;;;;20.60;99975.00;;;;2079761;28;20210;-52
2021/05/18 05:51:10;;;;;;;3.45;3.25;;;;;20.60;99968.00;;;;2079902;28;20214;-52
2021/05/18 05:52:17;;;;;;;3.80;3.40;;;;;20.60;99971.00;;;;2079910;28;20603;-50
2021/05/18 05:53:17;;;;;;;4.00;3.40;;;;;20.60;99976.00;;;;2079743;28;20717;-51
2021/05/18 05:54:19;;;;;;;3.00;2.80;;;;;20.60;99972.00;;;;2079856;28;20210;-51
2021/05/18 05:55:19;;;;;;;3.63;3.20;;;;;20.60;99980.00;;;;2079831;28;20230;-51
2021/05/18 05:56:20;;;;;;;3.93;3.53;;;;;20.60;99975.00;;;;2078931;28;20227;-51
2021/05/18 05:57:20;;;;;;;3.70;3.13;;;;;20.60;99971.00;;;;2079939;28;20235;-51
2021/05/18 05:58:20;;;;;;;3.90;3.60;;;;;20.60;99984.00;;;;2079838;28;20225;-52
2021/05/18 05:59:21;;;;;;;3.93;3.53;;;;;20.60;99981.00;;;;2079635;28;20621;-52
2021/05/18 06:00:21;;;;;;;4.27;3.77;;;;;20.60;99981.00;;;;2079769;28;20229;-51
2021/05/18 06:01:22;;;;;;;3.93;3.10;;;;;20.60;99983.00;;;;2079737;28;20218;-51
2021/05/18 06:02:22;;;;;;;4.00;3.70;;;;;20.60;99980.00;;;;2079927;28;20234;-51
2021/05/18 06:03:22;;;;;;;4.10;3.80;;;;;20.60;99978.00;;;;2079819;28;20706;-52
2021/05/18 06:04:23;;;;;;;3.93;3.63;;;;;20.60;99981.00;;;;2079928;28;20288;-52
2021/05/18 06:05:23;;;;;;;4.20;3.73;;;;;20.60;99980.00;;;;2079402;28;20214;-52
2021/05/18 06:06:24;;;;;;;4.27;3.87;;;;;20.60;99989.00;;;;2078992;28;20257;-52
2021/05/18 06:07:24;;;;;;;4.57;4.17;;;;;20.60;99985.00;;;;2079772;28;20678;-52
2021/05/18 06:08:24;;;;;;;4.10;3.80;;;;;20.60;99983.00;;;;2079534;28;20221;-52
2021/05/18 06:09:25;;;;;;;4.10;3.70;;;;;20.60;99983.00;;;;2079630;28;20268;-52
2021/05/18 06:10:32;;;;;;;4.73;4.33;;;;;20.60;99984.00;;;;2078192;28;20214;-52
2021/05/18 06:16:42;;;;;;;4.13;3.83;;;;;20.60;99987.00;;;;2075288;28;20205;-51
2021/05/18 06:42:13;;;;;;;3.85;3.38;;;;;20.60;99999.00;;;;2078312;28;20693;-52
2021/05/18 06:43:20;;;;;;;3.30;3.00;;;;;20.70;99998.00;;;;2071170;28;20257;-53
2021/05/18 06:45:57;;;;;;;3.40;3.10;;;;;20.60;99997.00;;;;2070643;28;20218;-52
2021/05/18 06:48:16;;;;;;;4.47;4.07;;;;;20.70;100012.00;;;;2076452;28;20694;-52
2021/05/18 06:49:17;;;;;;;5.27;4.77;;;;;20.70;100014.00;;;;2079491;28;20430;-51
2021/05/18 06:51:20;;;;;;;4.75;4.30;;;;;20.70;100014.00;;;;2079519;28;20210;-52
2021/05/18 06:52:20;;;;;;;4.57;4.23;;;;;20.70;100009.00;;;;2079184;28;20213;-52
2021/05/18 06:53:21;;;;;;;5.37;4.70;;;;;20.70;100007.00;;;;2079576;28;20202;-52
2021/05/18 06:54:21;;;;;;;5.03;4.47;;;;;20.70;100012.00;;;;2079525;28;20637;-52
2021/05/18 06:55:26;;;;;;;5.30;4.40;;;;;20.60;100013.00;;;;2078819;28;20206;-52
2021/05/18 06:56:33;;;;;;;5.30;4.80;;;;;20.70;100026.00;;;;2078548;28;20214;-52
2021/05/18 06:57:36;;;;;;;4.75;4.35;;;;;20.70;100015.00;;;;2079273;28;20265;-52
2021/05/18 07:00:55;;;;;;;5.05;4.55;;;;;20.60;100020.00;;;;2073524;28;20217;-52
2021/05/18 07:01:59;;;;;;;4.80;4.30;;;;;20.60;100016.00;;;;2078150;28;20805;-52
2021/05/18 07:02:59;;;;;;;5.05;4.65;;;;;20.60;100022.00;;;;2078055;28;20214;-51
2021/05/18 07:04:05;;;;;;;5.00;4.60;;;;;20.60;100020.00;;;;2075805;28;20260;-51
2021/05/18 07:05:33;;;;;;;6.00;5.07;;;;;20.60;100027.00;;;;2078511;28;20230;-52
2021/05/18 07:06:48;;;;;;;5.25;4.75;;;;;20.60;100029.00;;;;2077219;28;20218;-51
2021/05/18 07:07:54;;;;;;;4.65;4.25;;;;;20.60;100029.00;;;;2078661;28;20209;-52
2021/05/18 07:08:56;;;;;;;5.28;4.88;;;;;20.60;100025.00;;;;2079049;28;20217;-51
2021/05/18 07:09:56;;;;;;;5.18;4.68;;;;;20.60;100023.00;;;;2078781;28;20254;-51
2021/05/18 07:10:57;;;;;;;6.03;5.53;;;;;20.60;100026.00;;;;2077527;28;20658;-51
2021/05/18 07:11:57;;;;;;;4.80;4.50;;;;;20.60;100029.00;;;;2070669;28;20210;-52
2021/05/18 07:12:57;;;;;;;6.33;5.73;;;;;20.60;100038.00;;;;2070931;28;20261;-51
2021/05/18 07:13:58;;;;;;;7.00;6.33;;;;;20.60;100033.00;;;;2072994;28;20321;-52
2021/05/18 07:15:00;;;;;;;6.70;6.10;;;;;20.60;100035.00;;;;2076715;28;20710;-51
2021/05/18 07:16:00;;;;;;;7.85;7.05;;;;;20.60;100041.00;;;;2077988;28;20221;-52
2021/05/18 07:17:00;;;;;;;7.67;6.97;;;;;20.60;100041.00;;;;2074156;28;20954;-53
2021/05/18 07:18:01;;;;;;;7.70;7.00;;;;;20.60;100038.00;;;;2070012;28;20544;-52
2021/05/18 07:19:03;;;;;;;8.93;8.13;;;;;20.60;100038.00;;;;2074248;28;20220;-53
2021/05/18 07:20:04;;;;;;;10.00;8.75;;;;;20.60;100035.00;;;;2078787;28;20234;-53
2021/05/18 07:21:04;;;;;;;10.98;9.80;;;;;20.60;100040.00;;;;2077482;28;20229;-52
2021/05/18 07:22:05;;;;;;;12.20;11.00;;;;;20.60;100030.00;;;;2070726;28;20584;-52
2021/05/18 07:23:10;;;;;;;12.67;11.37;;;;;20.60;100043.00;;;;2071045;28;20210;-53
2021/05/18 07:24:12;;;;;;;13.27;11.98;;;;;20.60;100038.00;;;;2070921;28;20449;-53
2021/05/18 07:25:12;;;;;;;14.50;13.10;;;;;20.60;100036.00;;;;2078237;28;20674;-52
2021/05/18 07:26:13;;;;;;;15.13;13.63;;;;;20.60;100034.00;;;;2078024;28;20233;-53
2021/05/18 07:27:13;;;;;;;16.10;14.40;;;;;20.60;100040.00;;;;2075542;28;20221;-51